createdAt,value
2022-10-29T00:01:06.121Z,60.97
2022-10-29T00:03:41.217Z,60.80
2022-10-29T00:06:11.817Z,60.85
2022-10-29T00:08:40.406Z,61.17
2022-10-29T00:11:11.239Z,60.85
2022-10-29T00:13:39.959Z,60.48
2022-10-29T00:16:14.654Z,60.30
2022-10-29T00:18:43.883Z,60.82
2022-10-29T00:21:15.538Z,60.57
2022-10-29T00:23:43.930Z,60.68
2022-10-29T00:26:12.445Z,60.84
2022-10-29T00:28:40.801Z,60.69
2022-10-29T00:31:14.696Z,60.78
2022-10-29T00:33:43.337Z,60.86
2022-10-29T00:36:17.131Z,60.93
2022-10-29T00:38:46.099Z,60.74
2022-10-29T00:41:17.320Z,60.89
2022-10-29T00:43:51.850Z,60.79
2022-10-29T00:46:30.777Z,60.77
2022-10-29T00:48:59.403Z,60.86
2022-10-29T00:51:30.224Z,60.56
2022-10-29T00:54:11.340Z,60.97
2022-10-29T00:56:45.037Z,60.95
2022-10-29T00:59:16.473Z,61.09
2022-10-29T01:01:46.785Z,61.50
2022-10-29T01:04:17.075Z,61.28
2022-10-29T01:06:44.949Z,61.42
2022-10-29T01:09:13.051Z,61.46
2022-10-29T01:11:43.907Z,61.32
2022-10-29T01:14:31.186Z,61.65
2022-10-29T01:17:41.030Z,61.38
2022-10-29T01:20:35.832Z,61.55
2022-10-29T01:23:33.061Z,61.63
2022-10-29T01:26:33.388Z,61.81
2022-10-29T01:29:19.043Z,61.74
2022-10-29T01:32:00.738Z,61.99
2022-10-29T01:35:08.167Z,61.66
2022-10-29T01:37:48.569Z,61.68
2022-10-29T01:40:33.171Z,61.73
2022-10-29T01:43:44.707Z,61.38
2022-10-29T01:46:28.314Z,61.50
2022-10-29T01:49:01.730Z,61.46
2022-10-29T01:51:34.357Z,61.71
2022-10-29T01:54:08.680Z,61.33
2022-10-29T01:56:36.911Z,60.96
2022-10-29T01:59:18.266Z,61.10
2022-10-29T02:02:04.233Z,61.33
2022-10-29T02:04:38.022Z,61.33
2022-10-29T02:07:30.638Z,61.52
2022-10-29T02:10:10.950Z,61.28
2022-10-29T02:12:52.126Z,61.32
2022-10-29T02:15:29.815Z,61.36
2022-10-29T02:18:03.989Z,61.59
2022-10-29T02:20:32.340Z,61.71
2022-10-29T02:23:00.806Z,61.74
2022-10-29T02:25:29.214Z,61.83
2022-10-29T02:27:57.592Z,61.71
2022-10-29T02:30:25.833Z,61.87
2022-10-29T02:32:54.455Z,61.81
2022-10-29T02:35:23.255Z,61.93
2022-10-29T02:37:51.904Z,62.11
2022-10-29T02:40:19.945Z,62.17
2022-10-29T02:42:47.855Z,62.05
2022-10-29T02:45:15.889Z,62.08
2022-10-29T02:47:43.790Z,62.20
2022-10-29T02:50:11.715Z,62.26
2022-10-29T02:52:40.087Z,61.88
2022-10-29T02:55:08.501Z,62.17
2022-10-29T02:57:36.339Z,61.99
2022-10-29T03:00:06.122Z,61.84
2022-10-29T03:02:34.237Z,61.69
2022-10-29T03:05:03.457Z,61.69
2022-10-29T03:07:35.808Z,61.70
2022-10-29T03:10:05.580Z,61.54
2022-10-29T03:12:34.569Z,61.63
2022-10-29T03:15:02.537Z,61.54
2022-10-29T03:17:30.429Z,61.32
2022-10-29T03:19:58.297Z,61.15
2022-10-29T03:22:26.269Z,61.20
2022-10-29T03:24:54.168Z,61.11
2022-10-29T03:27:22.084Z,61.16
2022-10-29T03:29:49.978Z,61.13
2022-10-29T03:32:17.796Z,60.78
2022-10-29T03:34:45.589Z,60.70
2022-10-29T03:37:13.652Z,60.47
2022-10-29T03:39:41.551Z,60.18
2022-10-29T03:42:09.434Z,60.18
2022-10-29T03:44:37.432Z,59.46
2022-10-29T03:47:08.014Z,58.90
2022-10-29T03:49:35.953Z,58.88
2022-10-29T03:52:04.325Z,59.35
2022-10-29T03:54:32.356Z,59.05
2022-10-29T03:57:00.549Z,59.11
2022-10-29T03:59:28.527Z,58.76
2022-10-29T04:01:56.574Z,58.27
2022-10-29T04:04:24.887Z,58.63
2022-10-29T04:06:52.772Z,57.70
2022-10-29T04:09:20.782Z,57.91
2022-10-29T04:11:48.850Z,58.12
2022-10-29T04:14:17.004Z,57.88
2022-10-29T04:16:44.908Z,57.40
2022-10-29T04:19:12.896Z,57.30
2022-10-29T04:28:36.661Z,57.03
2022-10-29T04:30:05.467Z,56.56
2022-10-29T04:32:33.411Z,56.67
2022-10-29T04:35:01.274Z,56.18
2022-10-29T04:37:29.551Z,56.34
2022-10-29T04:39:57.605Z,56.44
2022-10-29T04:42:25.570Z,56.16
2022-10-29T04:44:53.477Z,55.96
2022-10-29T04:47:21.475Z,56.62
2022-10-29T04:49:49.411Z,56.35
2022-10-29T04:52:17.364Z,55.99
2022-10-29T04:54:45.396Z,55.54
2022-10-29T04:57:13.320Z,56.03
2022-10-29T04:59:41.213Z,56.18
2022-10-29T05:02:10.797Z,55.46
2022-10-29T05:04:38.737Z,55.48
2022-10-29T05:07:06.598Z,55.76
2022-10-29T05:09:34.825Z,55.79
2022-10-29T05:12:02.651Z,55.92
2022-10-29T05:14:31.217Z,55.85
2022-10-29T05:16:59.134Z,55.60
2022-10-29T05:19:27.139Z,55.94
2022-10-29T05:21:55.084Z,55.54
2022-10-29T05:24:23.465Z,55.25
2022-10-29T05:26:51.781Z,55.87
2022-10-29T05:29:19.715Z,55.87
2022-10-29T05:31:47.571Z,55.42
2022-10-29T05:34:15.393Z,55.89
2022-10-29T05:36:43.356Z,55.71
2022-10-29T05:39:11.652Z,55.83
2022-10-29T05:41:39.548Z,55.50
2022-10-29T05:44:07.620Z,55.66
2022-10-29T05:46:35.609Z,55.22
2022-10-29T05:49:04.299Z,55.27
2022-10-29T05:51:32.225Z,55.41
2022-10-29T05:54:00.205Z,55.51
2022-10-29T05:56:28.278Z,55.51
2022-10-29T05:58:56.497Z,55.70
2022-10-29T06:01:24.640Z,55.57
2022-10-29T06:06:25.539Z,56.03
2022-10-29T06:08:53.686Z,55.81
2022-10-29T06:11:21.845Z,56.11
2022-10-29T06:13:49.770Z,56.28
2022-10-29T06:16:17.692Z,56.22
2022-10-29T06:18:46.017Z,56.62
2022-10-29T06:21:13.916Z,57.03
2022-10-29T06:23:41.772Z,57.05
2022-10-29T06:26:10.073Z,57.18
2022-10-29T06:28:38.092Z,57.21
2022-10-29T06:31:06.194Z,57.09
2022-10-29T06:33:34.276Z,57.28
2022-10-29T06:36:03.166Z,57.08
2022-10-29T06:38:31.103Z,57.06
2022-10-29T06:40:59.255Z,56.95
2022-10-29T06:43:27.190Z,57.17
2022-10-29T06:45:55.164Z,56.75
2022-10-29T06:48:23.561Z,57.01
2022-10-29T06:50:52.244Z,57.01
2022-10-29T06:53:21.030Z,57.01
2022-10-29T06:55:48.997Z,56.94
2022-10-29T06:58:19.124Z,57.06
2022-10-29T07:00:48.574Z,57.14
2022-10-29T07:03:21.333Z,57.13
2022-10-29T07:05:59.531Z,56.80
2022-10-29T07:08:28.174Z,56.99
2022-10-29T07:10:56.981Z,56.73
2022-10-29T07:13:25.103Z,56.81
2022-10-29T07:15:53.113Z,56.82
2022-10-29T07:18:21.083Z,56.65
2022-10-29T07:20:49.410Z,56.06
2022-10-29T07:23:18.125Z,55.86
2022-10-29T07:25:46.287Z,55.94
2022-10-29T07:28:17.851Z,55.77
2022-10-29T07:30:45.806Z,55.65
2022-10-29T07:33:13.897Z,55.33
2022-10-29T07:35:42.821Z,55.13
2022-10-29T07:38:13.019Z,54.70
2022-10-29T07:40:48.657Z,54.24
2022-10-29T07:43:18.793Z,54.34
2022-10-29T07:45:49.302Z,54.20
2022-10-29T07:48:19.033Z,54.04
2022-10-29T07:50:47.804Z,53.60
2022-10-29T07:53:16.022Z,53.54
2022-10-29T07:55:44.158Z,53.71
2022-10-29T07:58:12.798Z,53.36
2022-10-29T08:00:42.828Z,53.30
2022-10-29T08:03:12.483Z,53.04
2022-10-29T08:05:42.813Z,52.96
2022-10-29T08:08:11.371Z,52.58
2022-10-29T08:10:39.373Z,52.53
2022-10-29T08:13:07.827Z,52.23
2022-10-29T08:15:36.242Z,52.07
2022-10-29T08:18:11.892Z,51.81
2022-10-29T08:20:40.085Z,51.57
2022-10-29T08:23:08.776Z,51.50
2022-10-29T08:25:37.042Z,51.34
2022-10-29T08:28:05.745Z,50.97
2022-10-29T08:30:34.728Z,50.52
2022-10-29T08:33:03.422Z,50.26
2022-10-29T08:35:32.853Z,49.99
2022-10-29T08:38:00.800Z,49.83
2022-10-29T08:40:34.814Z,49.67
2022-10-29T08:43:30.598Z,49.69
2022-10-29T08:45:59.209Z,49.57
2022-10-29T08:49:02.775Z,49.20
2022-10-29T08:51:37.017Z,49.26
2022-10-29T08:54:29.789Z,49.16
2022-10-29T08:56:57.605Z,49.21
2022-10-29T08:59:29.502Z,49.19
2022-10-29T09:01:57.866Z,49.00
2022-10-29T09:04:33.268Z,48.78
2022-10-29T09:07:39.710Z,48.49
2022-10-29T09:10:38.121Z,48.69
2022-10-29T09:13:22.165Z,48.61
2022-10-29T09:16:01.599Z,48.40
2022-10-29T09:19:08.456Z,48.04
2022-10-29T09:21:54.952Z,48.06
2022-10-29T09:24:35.482Z,47.78
2022-10-29T09:27:10.652Z,47.12
2022-10-29T09:29:58.080Z,47.03
2022-10-29T09:32:58.821Z,46.75
2022-10-29T09:35:54.798Z,46.73
2022-10-29T09:38:28.093Z,46.87
2022-10-29T09:40:59.344Z,46.93
2022-10-29T09:43:45.944Z,46.98
2022-10-29T09:46:27.327Z,47.16
2022-10-29T09:49:18.116Z,46.99
2022-10-29T09:52:09.196Z,47.01
2022-10-29T09:54:37.296Z,47.21
2022-10-29T09:57:07.007Z,47.49
2022-10-29T09:59:47.631Z,47.58
2022-10-29T10:02:37.729Z,47.66
2022-10-29T10:05:16.369Z,47.61
2022-10-29T10:08:14.218Z,47.47
2022-10-29T10:11:06.241Z,47.46
2022-10-29T10:13:37.181Z,47.13
2022-10-29T10:16:06.796Z,47.05
2022-10-29T10:21:35.706Z,47.07
2022-10-29T10:24:25.362Z,47.13
2022-10-29T10:26:53.638Z,47.61
2022-10-29T10:29:23.780Z,48.25
2022-10-29T10:31:58.205Z,48.66
2022-10-29T10:34:46.519Z,48.67
2022-10-29T10:37:20.328Z,48.32
2022-10-29T10:40:00.381Z,48.43
2022-10-29T10:42:32.853Z,48.92
2022-10-29T10:45:13.005Z,49.16
2022-10-29T10:47:49.117Z,49.36
2022-10-29T10:50:29.597Z,49.64
2022-10-29T10:53:00.096Z,49.55
2022-10-29T10:55:32.444Z,50.00
2022-10-29T10:58:39.387Z,50.16
2022-10-29T11:01:14.272Z,50.08
2022-10-29T11:03:49.172Z,49.78
2022-10-29T11:06:31.938Z,49.69
2022-10-29T11:09:05.871Z,49.66
2022-10-29T11:11:42.563Z,50.03
2022-10-29T11:14:15.896Z,50.72
2022-10-29T11:16:47.369Z,50.74
2022-10-29T11:19:24.852Z,51.22
2022-10-29T11:22:04.589Z,51.47
2022-10-29T11:24:58.797Z,51.80
2022-10-29T11:27:26.667Z,51.70
2022-10-29T11:30:10.195Z,51.83
2022-10-29T11:32:53.561Z,51.93
2022-10-29T11:35:29.893Z,51.84
2022-10-29T11:38:06.121Z,51.73
2022-10-29T11:40:59.297Z,51.57
2022-10-29T11:43:27.288Z,51.42
2022-10-29T11:46:18.375Z,51.50
2022-10-29T11:49:04.866Z,51.77
2022-10-29T11:51:51.571Z,51.96
2022-10-29T11:54:51.263Z,51.97
2022-10-29T11:57:52.188Z,51.89
2022-10-29T12:00:22.656Z,51.74
2022-10-29T12:03:25.756Z,51.88
2022-10-29T12:06:37.265Z,51.89
2022-10-29T12:09:24.269Z,51.70
2022-10-29T12:12:35.013Z,51.48
2022-10-29T12:15:28.141Z,51.11
2022-10-29T12:18:04.884Z,51.03
2022-10-29T12:20:51.947Z,50.72
2022-10-29T12:23:37.374Z,50.48
2022-10-29T12:26:18.803Z,50.30
2022-10-29T12:28:50.727Z,50.43
2022-10-29T12:31:35.416Z,50.45
2022-10-29T12:34:13.417Z,50.26
2022-10-29T12:36:48.972Z,50.05
2022-10-29T12:39:47.534Z,49.99
2022-10-29T12:42:28.114Z,50.16
2022-10-29T12:45:24.007Z,49.94
2022-10-29T12:48:13.779Z,49.59
2022-10-29T12:51:12.348Z,49.52
2022-10-29T12:54:01.124Z,49.64
2022-10-29T12:56:30.971Z,49.75
2022-10-29T12:59:24.887Z,49.39
2022-10-29T13:05:08.000Z,49.46
2022-10-29T13:08:01.682Z,49.65
2022-10-29T13:10:35.876Z,49.52
2022-10-29T13:13:25.649Z,49.63
2022-10-29T13:16:07.652Z,49.76
2022-10-29T13:19:00.694Z,49.93
2022-10-29T13:21:55.165Z,50.16
2022-10-29T13:24:24.370Z,50.45
2022-10-29T13:26:56.741Z,51.17
2022-10-29T13:29:46.616Z,51.48
2022-10-29T13:32:35.882Z,51.77
2022-10-29T13:35:19.107Z,51.92
2022-10-29T13:37:47.069Z,52.53
2022-10-29T13:40:33.078Z,52.61
2022-10-29T13:43:17.325Z,53.16
2022-10-29T13:46:01.234Z,53.49
2022-10-29T13:48:33.933Z,53.52
2022-10-29T13:51:07.547Z,53.80
2022-10-29T13:53:59.846Z,54.06
2022-10-29T13:56:54.999Z,54.17
2022-10-29T13:59:33.248Z,54.19
2022-10-29T14:02:13.865Z,54.11
2022-10-29T14:04:47.347Z,54.38
2022-10-29T14:07:21.421Z,54.78
2022-10-29T14:09:56.458Z,55.09
2022-10-29T14:12:30.510Z,55.28
2022-10-29T14:15:10.413Z,55.18
2022-10-29T14:17:38.592Z,54.97
2022-10-29T14:20:23.866Z,55.08
2022-10-29T14:22:51.932Z,55.60
2022-10-29T14:25:35.186Z,56.10
2022-10-29T14:28:23.700Z,56.33
2022-10-29T14:31:11.013Z,56.52
2022-10-29T14:33:41.678Z,56.56
2022-10-29T14:36:12.700Z,56.50
2022-10-29T14:38:51.074Z,56.42
2022-10-29T14:41:21.657Z,56.48
2022-10-29T14:44:03.011Z,56.65
2022-10-29T14:46:37.669Z,57.19
2022-10-29T14:49:14.687Z,57.58
2022-10-29T14:51:53.031Z,57.62
2022-10-29T14:54:27.972Z,57.68
2022-10-29T14:56:59.652Z,58.38
2022-10-29T14:59:31.072Z,59.67
2022-10-29T15:02:17.394Z,60.06
2022-10-29T15:05:04.640Z,60.07
2022-10-29T15:07:36.747Z,60.25
2022-10-29T15:10:21.972Z,60.05
2022-10-29T15:12:53.467Z,60.41
2022-10-29T15:15:24.681Z,61.15
2022-10-29T15:18:01.914Z,62.18
2022-10-29T15:20:45.078Z,62.85
2022-10-29T15:23:26.860Z,63.11
2022-10-29T15:26:03.856Z,62.87
2022-10-29T15:28:37.284Z,62.85
2022-10-29T15:31:05.974Z,63.21
2022-10-29T15:33:37.054Z,63.33
2022-10-29T15:36:05.826Z,63.72
2022-10-29T15:38:33.785Z,64.38
2022-10-29T15:41:20.466Z,64.63
2022-10-29T15:43:53.117Z,65.00
2022-10-29T15:46:22.163Z,65.51
2022-10-29T15:48:50.134Z,65.41
2022-10-29T15:51:21.793Z,65.70
2022-10-29T15:53:50.379Z,66.37
2022-10-29T15:56:18.608Z,66.85
2022-10-29T15:58:46.738Z,66.81
2022-10-29T16:01:16.552Z,66.87
2022-10-29T16:03:45.243Z,66.78
2022-10-29T16:06:15.978Z,66.56
2022-10-29T16:08:50.160Z,66.65
2022-10-29T16:11:22.033Z,66.64
2022-10-29T16:13:54.475Z,66.69
2022-10-29T16:16:25.489Z,66.61
2022-10-29T16:18:53.763Z,66.94
2022-10-29T16:21:24.195Z,67.13
2022-10-29T16:23:53.310Z,67.03
2022-10-29T16:26:25.954Z,66.91
2022-10-29T16:28:54.357Z,67.23
2022-10-29T16:31:25.403Z,67.18
2022-10-29T16:33:56.824Z,67.35
2022-10-29T16:36:25.124Z,67.51
2022-10-29T16:38:53.307Z,67.35
2022-10-29T16:41:21.688Z,67.22
2022-10-29T16:43:49.661Z,67.33
2022-10-29T16:46:18.044Z,67.66
2022-10-29T16:48:47.358Z,68.01
2022-10-29T16:51:15.424Z,67.98
2022-10-29T16:53:43.499Z,68.04
2022-10-29T16:56:11.577Z,68.10
2022-10-29T16:58:39.858Z,68.16
2022-10-29T17:01:09.025Z,68.23
2022-10-29T17:03:37.238Z,68.35
2022-10-29T17:06:07.751Z,68.89
2022-10-29T17:08:37.760Z,69.14
2022-10-29T17:11:07.071Z,69.38
2022-10-29T17:13:35.352Z,69.22
2022-10-29T17:16:11.434Z,69.07
2022-10-29T17:18:40.019Z,69.31
2022-10-29T17:21:08.404Z,69.78
2022-10-29T17:23:36.787Z,69.77
2022-10-29T17:26:04.861Z,69.77
2022-10-29T17:28:34.577Z,69.98
2022-10-29T17:31:09.359Z,69.98
2022-10-29T17:33:37.552Z,70.05
2022-10-29T17:36:11.219Z,70.54
2022-10-29T17:38:39.496Z,70.91
2022-10-29T17:41:07.956Z,71.06
2022-10-29T17:43:36.440Z,71.11
2022-10-29T17:46:04.933Z,71.10
2022-10-29T17:48:33.407Z,70.90
2022-10-29T17:51:03.373Z,71.42
2022-10-29T17:53:31.611Z,71.40
2022-10-29T17:56:01.165Z,72.14
2022-10-29T17:58:30.521Z,72.48
2022-10-29T18:01:09.243Z,72.27
2022-10-29T18:03:37.729Z,72.17
2022-10-29T18:06:08.797Z,72.03
2022-10-29T18:08:38.943Z,71.85
2022-10-29T18:11:14.466Z,72.12
2022-10-29T18:13:44.363Z,72.34
2022-10-29T18:16:17.844Z,72.99
2022-10-29T18:19:00.871Z,72.94
2022-10-29T18:21:31.305Z,73.06
2022-10-29T18:23:59.380Z,73.10
2022-10-29T18:26:31.780Z,73.03
2022-10-29T18:29:06.588Z,73.25
2022-10-29T18:31:36.005Z,73.19
2022-10-29T18:34:06.785Z,73.12
2022-10-29T18:36:35.149Z,73.23
2022-10-29T18:39:04.898Z,73.33
2022-10-29T18:41:34.230Z,73.13
2022-10-29T18:44:02.513Z,73.14
2022-10-29T18:46:30.844Z,73.14
2022-10-29T18:49:00.274Z,73.04
2022-10-29T18:51:30.508Z,73.02
2022-10-29T18:53:59.008Z,72.94
2022-10-29T18:56:29.393Z,73.03
2022-10-29T18:58:59.150Z,73.04
2022-10-29T19:01:30.517Z,73.01
2022-10-29T19:04:01.033Z,73.12
2022-10-29T19:06:32.320Z,73.27
2022-10-29T19:09:02.615Z,73.25
2022-10-29T19:11:30.689Z,73.50
2022-10-29T19:14:01.633Z,73.54
2022-10-29T19:16:31.570Z,73.54
2022-10-29T19:21:40.419Z,73.49
2022-10-29T19:24:12.241Z,73.54
2022-10-29T19:26:40.483Z,73.54
2022-10-29T19:29:10.140Z,73.55
2022-10-29T19:31:39.447Z,73.50
2022-10-29T19:34:08.455Z,73.42
2022-10-29T19:36:37.339Z,73.32
2022-10-29T19:39:05.925Z,73.38
2022-10-29T19:41:34.325Z,73.33
2022-10-29T19:44:03.509Z,73.39
2022-10-29T19:46:31.892Z,73.35
2022-10-29T19:48:59.772Z,73.28
2022-10-29T19:51:27.896Z,73.45
2022-10-29T19:53:56.940Z,73.47
2022-10-29T19:56:24.910Z,73.40
2022-10-29T19:58:52.791Z,73.37
2022-10-29T20:01:20.879Z,73.56
2022-10-29T20:03:48.933Z,73.90
2022-10-29T20:06:17.288Z,73.84
2022-10-29T20:08:45.399Z,73.86
2022-10-29T20:11:13.493Z,73.86
2022-10-29T20:13:41.855Z,73.83
2022-10-29T20:16:15.970Z,73.83
2022-10-29T20:18:43.854Z,73.77
2022-10-29T20:21:12.730Z,73.87
2022-10-29T20:23:41.932Z,73.90
2022-10-29T20:26:10.935Z,73.95
2022-10-29T20:28:39.004Z,73.95
2022-10-29T20:31:11.381Z,73.92
2022-10-29T20:33:39.521Z,73.82
2022-10-29T20:36:08.208Z,73.30
2022-10-29T20:38:36.220Z,73.11
2022-10-29T20:41:04.300Z,72.17
2022-10-29T20:43:32.363Z,71.92
2022-10-29T20:46:01.783Z,72.21
2022-10-29T20:48:30.586Z,72.20
2022-10-29T20:50:58.724Z,72.21
2022-10-29T20:53:26.727Z,72.14
2022-10-29T20:55:55.002Z,71.83
2022-10-29T20:58:22.882Z,71.93
2022-10-29T21:00:51.341Z,71.93
2022-10-29T21:03:19.435Z,71.94
2022-10-29T21:05:47.306Z,71.78
2022-10-29T21:08:15.646Z,71.62
2022-10-29T21:10:43.574Z,71.79
2022-10-29T21:13:11.472Z,71.61
2022-10-29T21:15:39.394Z,71.47
2022-10-29T21:18:07.251Z,71.65
2022-10-29T21:20:35.251Z,70.95
2022-10-29T21:23:03.535Z,70.91
2022-10-29T21:25:31.383Z,70.93
2022-10-29T21:27:59.714Z,70.72
2022-10-29T21:30:28.273Z,70.61
2022-10-29T21:32:56.346Z,70.17
2022-10-29T21:35:24.321Z,70.15
2022-10-29T21:37:52.310Z,69.97
2022-10-29T21:40:20.370Z,70.04
2022-10-29T21:42:48.344Z,70.19
2022-10-29T21:45:16.423Z,70.17
2022-10-29T21:47:44.294Z,70.03
2022-10-29T21:50:12.058Z,69.87
2022-10-29T21:52:40.958Z,70.08
2022-10-29T21:55:09.136Z,69.86
2022-10-29T21:57:37.107Z,69.62
2022-10-29T22:00:09.122Z,69.65
2022-10-29T22:02:37.150Z,69.19
2022-10-29T22:05:05.494Z,68.60
2022-10-29T22:07:34.325Z,69.08
2022-10-29T22:10:02.706Z,69.33
2022-10-29T22:12:31.195Z,68.78
2022-10-29T22:14:59.369Z,68.81
2022-10-29T22:17:28.437Z,68.96
2022-10-29T22:19:57.057Z,69.14
2022-10-29T22:22:25.337Z,69.08
2022-10-29T22:24:53.342Z,68.80
2022-10-29T22:27:21.285Z,68.93
2022-10-29T22:29:53.498Z,69.14
2022-10-29T22:32:22.813Z,68.49
2022-10-29T22:34:50.674Z,69.04
2022-10-29T22:37:18.603Z,68.86
2022-10-29T22:39:46.483Z,68.76
2022-10-29T22:42:14.760Z,68.63
2022-10-29T22:44:42.735Z,68.81
2022-10-29T22:47:10.603Z,69.10
2022-10-29T22:49:38.855Z,68.81
2022-10-29T22:52:06.769Z,68.77
2022-10-29T22:54:34.838Z,68.58
2022-10-29T22:57:02.809Z,68.46
2022-10-29T22:59:31.088Z,68.46
2022-10-29T23:01:59.454Z,68.17
2022-10-29T23:04:27.653Z,68.32
2022-10-29T23:07:00.768Z,68.57
2022-10-29T23:09:29.937Z,68.31
2022-10-29T23:11:57.807Z,68.61
2022-10-29T23:14:25.748Z,68.87
2022-10-29T23:16:54.268Z,68.61
2022-10-29T23:19:22.650Z,68.48
2022-10-29T23:21:51.034Z,68.39
2022-10-29T23:24:19.011Z,68.15
2022-10-29T23:26:46.982Z,68.04
2022-10-29T23:29:14.852Z,67.75
2022-10-29T23:31:42.850Z,67.37
2022-10-29T23:34:11.925Z,67.32
2022-10-29T23:36:40.039Z,67.46
2022-10-29T23:39:08.179Z,67.16
2022-10-29T23:41:36.049Z,67.16
2022-10-29T23:44:04.024Z,66.28
2022-10-29T23:46:31.952Z,66.83
2022-10-29T23:48:59.869Z,66.57
2022-10-29T23:51:27.754Z,66.50
2022-10-29T23:53:57.614Z,66.66
2022-10-29T23:56:26.275Z,66.77
2022-10-29T23:58:54.527Z,66.32
